sensor_id;sensor_type;location;lat;lon;timestamp;temperature;humidity
56426;DHT22;42330;43.620;3.856;2022-09-09T00:06:28;19.50;97.00
56426;DHT22;42330;43.620;3.856;2022-09-09T00:09:06;19.60;97.70
56426;DHT22;42330;43.620;3.856;2022-09-09T00:11:48;19.60;96.90
56426;DHT22;42330;43.620;3.856;2022-09-09T00:14:42;19.50;96.80
56426;DHT22;42330;43.620;3.856;2022-09-09T00:20:02;19.60;97.10
56426;DHT22;42330;43.620;3.856;2022-09-09T00:22:31;19.60;98.60
56426;DHT22;42330;43.620;3.856;2022-09-09T00:25:33;19.60;97.90
56426;DHT22;42330;43.620;3.856;2022-09-09T00:27:59;19.60;97.90
56426;DHT22;42330;43.620;3.856;2022-09-09T00:30:33;19.60;98.00
56426;DHT22;42330;43.620;3.856;2022-09-09T00:33:01;19.80;97.90
56426;DHT22;42330;43.620;3.856;2022-09-09T00:35:32;19.90;98.30
56426;DHT22;42330;43.620;3.856;2022-09-09T00:38:13;19.80;97.40
56426;DHT22;42330;43.620;3.856;2022-09-09T00:43:37;19.80;96.00
56426;DHT22;42330;43.620;3.856;2022-09-09T00:49:08;19.80;96.20
56426;DHT22;42330;43.620;3.856;2022-09-09T00:56:47;19.80;97.60
56426;DHT22;42330;43.620;3.856;2022-09-09T01:04:47;19.80;96.10
56426;DHT22;42330;43.620;3.856;2022-09-09T01:07:17;19.80;96.90
56426;DHT22;42330;43.620;3.856;2022-09-09T01:10:03;19.90;96.30
56426;DHT22;42330;43.620;3.856;2022-09-09T01:12:41;19.80;96.20
56426;DHT22;42330;43.620;3.856;2022-09-09T01:15:14;19.90;97.60
56426;DHT22;42330;43.620;3.856;2022-09-09T01:20:25;19.80;95.00
56426;DHT22;42330;43.620;3.856;2022-09-09T01:26:33;19.90;95.20
56426;DHT22;42330;43.620;3.856;2022-09-09T01:28:59;19.90;95.70
56426;DHT22;42330;43.620;3.856;2022-09-09T01:31:32;19.90;96.10
56426;DHT22;42330;43.620;3.856;2022-09-09T01:34:00;19.90;95.50
56426;DHT22;42330;43.620;3.856;2022-09-09T01:36:43;19.90;95.70
56426;DHT22;42330;43.620;3.856;2022-09-09T01:39:11;19.90;96.90
56426;DHT22;42330;43.620;3.856;2022-09-09T01:41:38;19.90;95.20
56426;DHT22;42330;43.620;3.856;2022-09-09T01:44:05;19.80;94.70
56426;DHT22;42330;43.620;3.856;2022-09-09T01:46:31;19.80;95.80
56426;DHT22;42330;43.620;3.856;2022-09-09T01:48:57;19.90;96.70
56426;DHT22;42330;43.620;3.856;2022-09-09T01:51:24;19.90;95.40
56426;DHT22;42330;43.620;3.856;2022-09-09T01:53:50;19.90;94.60
56426;DHT22;42330;43.620;3.856;2022-09-09T02:02:26;19.90;95.10
56426;DHT22;42330;43.620;3.856;2022-09-09T02:04:39;19.90;94.40
56426;DHT22;42330;43.620;3.856;2022-09-09T02:07:38;19.90;96.30
56426;DHT22;42330;43.620;3.856;2022-09-09T02:12:47;19.80;96.10
56426;DHT22;42330;43.620;3.856;2022-09-09T02:15:21;19.80;94.10
56426;DHT22;42330;43.620;3.856;2022-09-09T02:17:50;19.80;95.10
56426;DHT22;42330;43.620;3.856;2022-09-09T02:20:18;19.70;93.50
56426;DHT22;42330;43.620;3.856;2022-09-09T02:22:46;19.70;94.00
56426;DHT22;42330;43.620;3.856;2022-09-09T02:25:16;19.70;95.30
56426;DHT22;42330;43.620;3.856;2022-09-09T02:27:45;19.70;94.80
56426;DHT22;42330;43.620;3.856;2022-09-09T02:30:12;19.70;94.30
56426;DHT22;42330;43.620;3.856;2022-09-09T02:32:38;19.70;95.70
56426;DHT22;42330;43.620;3.856;2022-09-09T02:35:09;19.70;93.80
56426;DHT22;42330;43.620;3.856;2022-09-09T02:37:38;19.70;92.90
56426;DHT22;42330;43.620;3.856;2022-09-09T02:40:06;19.80;93.90
56426;DHT22;42330;43.620;3.856;2022-09-09T02:42:42;19.70;93.40
56426;DHT22;42330;43.620;3.856;2022-09-09T02:45:11;19.80;94.00
56426;DHT22;42330;43.620;3.856;2022-09-09T02:48:03;19.80;93.90
56426;DHT22;42330;43.620;3.856;2022-09-09T02:51:03;19.80;93.30
56426;DHT22;42330;43.620;3.856;2022-09-09T02:53:47;19.80;93.60
56426;DHT22;42330;43.620;3.856;2022-09-09T02:56:18;19.80;92.60
56426;DHT22;42330;43.620;3.856;2022-09-09T02:58:45;19.80;93.90
56426;DHT22;42330;43.620;3.856;2022-09-09T03:01:12;19.80;93.00
56426;DHT22;42330;43.620;3.856;2022-09-09T03:03:38;19.70;92.30
56426;DHT22;42330;43.620;3.856;2022-09-09T03:06:03;19.60;93.10
56426;DHT22;42330;43.620;3.856;2022-09-09T03:08:31;19.60;92.70
56426;DHT22;42330;43.620;3.856;2022-09-09T03:10:58;19.60;92.70
56426;DHT22;42330;43.620;3.856;2022-09-09T03:13:27;19.50;92.50
56426;DHT22;42330;43.620;3.856;2022-09-09T03:15:52;19.50;93.80
56426;DHT22;42330;43.620;3.856;2022-09-09T03:18:18;19.50;93.60
56426;DHT22;42330;43.620;3.856;2022-09-09T03:20:44;19.50;91.80
56426;DHT22;42330;43.620;3.856;2022-09-09T03:23:11;19.40;93.10
56426;DHT22;42330;43.620;3.856;2022-09-09T03:25:39;19.40;93.30
56426;DHT22;42330;43.620;3.856;2022-09-09T03:28:04;19.50;94.70
56426;DHT22;42330;43.620;3.856;2022-09-09T03:30:30;19.50;95.00
56426;DHT22;42330;43.620;3.856;2022-09-09T03:32:56;19.60;94.00
56426;DHT22;42330;43.620;3.856;2022-09-09T03:35:22;19.60;93.90
56426;DHT22;42330;43.620;3.856;2022-09-09T03:37:48;19.60;94.80
56426;DHT22;42330;43.620;3.856;2022-09-09T03:40:14;19.60;93.50
56426;DHT22;42330;43.620;3.856;2022-09-09T03:42:40;19.70;91.30
56426;DHT22;42330;43.620;3.856;2022-09-09T03:45:08;19.70;92.00
56426;DHT22;42330;43.620;3.856;2022-09-09T03:47:34;19.80;93.10
56426;DHT22;42330;43.620;3.856;2022-09-09T03:50:00;19.80;91.30
56426;DHT22;42330;43.620;3.856;2022-09-09T03:52:26;19.80;92.70
56426;DHT22;42330;43.620;3.856;2022-09-09T03:54:53;19.80;92.50
56426;DHT22;42330;43.620;3.856;2022-09-09T03:57:19;19.80;91.90
56426;DHT22;42330;43.620;3.856;2022-09-09T03:59:45;19.80;92.40
56426;DHT22;42330;43.620;3.856;2022-09-09T04:02:11;19.70;91.10
56426;DHT22;42330;43.620;3.856;2022-09-09T04:04:36;19.70;93.70
56426;DHT22;42330;43.620;3.856;2022-09-09T04:07:02;19.70;92.30
56426;DHT22;42330;43.620;3.856;2022-09-09T04:09:28;19.60;90.90
56426;DHT22;42330;43.620;3.856;2022-09-09T04:11:54;19.70;94.20
56426;DHT22;42330;43.620;3.856;2022-09-09T04:14:20;19.70;93.10
56426;DHT22;42330;43.620;3.856;2022-09-09T04:16:46;19.70;94.00
56426;DHT22;42330;43.620;3.856;2022-09-09T04:19:13;19.70;93.00
56426;DHT22;42330;43.620;3.856;2022-09-09T04:21:40;19.80;91.40
56426;DHT22;42330;43.620;3.856;2022-09-09T04:24:07;19.80;92.70
56426;DHT22;42330;43.620;3.856;2022-09-09T04:26:33;19.70;92.20
56426;DHT22;42330;43.620;3.856;2022-09-09T04:28:59;19.80;93.70
56426;DHT22;42330;43.620;3.856;2022-09-09T04:31:24;19.80;93.30
56426;DHT22;42330;43.620;3.856;2022-09-09T04:33:51;19.80;94.10
56426;DHT22;42330;43.620;3.856;2022-09-09T04:36:17;19.80;94.30
56426;DHT22;42330;43.620;3.856;2022-09-09T04:38:45;19.80;94.50
56426;DHT22;42330;43.620;3.856;2022-09-09T04:41:11;19.80;90.70
56426;DHT22;42330;43.620;3.856;2022-09-09T04:43:38;19.90;93.20
56426;DHT22;42330;43.620;3.856;2022-09-09T04:46:04;19.90;92.70
56426;DHT22;42330;43.620;3.856;2022-09-09T04:48:30;19.90;92.50
56426;DHT22;42330;43.620;3.856;2022-09-09T04:50:57;20.00;91.50
56426;DHT22;42330;43.620;3.856;2022-09-09T04:53:24;20.00;90.00
56426;DHT22;42330;43.620;3.856;2022-09-09T04:55:52;20.00;90.20
56426;DHT22;42330;43.620;3.856;2022-09-09T04:58:18;20.00;89.50
56426;DHT22;42330;43.620;3.856;2022-09-09T05:00:44;20.10;88.80
56426;DHT22;42330;43.620;3.856;2022-09-09T05:03:10;20.10;90.20
56426;DHT22;42330;43.620;3.856;2022-09-09T05:05:36;20.10;90.70
56426;DHT22;42330;43.620;3.856;2022-09-09T05:08:03;20.10;91.20
56426;DHT22;42330;43.620;3.856;2022-09-09T05:10:29;20.10;89.50
56426;DHT22;42330;43.620;3.856;2022-09-09T05:12:54;20.10;92.40
56426;DHT22;42330;43.620;3.856;2022-09-09T05:15:20;20.10;90.20
56426;DHT22;42330;43.620;3.856;2022-09-09T05:17:46;20.10;87.90
56426;DHT22;42330;43.620;3.856;2022-09-09T05:20:12;20.00;90.20
56426;DHT22;42330;43.620;3.856;2022-09-09T05:22:38;20.10;91.00
56426;DHT22;42330;43.620;3.856;2022-09-09T05:25:04;20.00;90.80
56426;DHT22;42330;43.620;3.856;2022-09-09T05:27:29;20.10;91.60
56426;DHT22;42330;43.620;3.856;2022-09-09T05:29:57;20.00;91.40
56426;DHT22;42330;43.620;3.856;2022-09-09T05:32:23;20.00;90.30
56426;DHT22;42330;43.620;3.856;2022-09-09T05:34:49;20.10;90.20
56426;DHT22;42330;43.620;3.856;2022-09-09T05:37:15;20.10;91.80
56426;DHT22;42330;43.620;3.856;2022-09-09T05:39:42;20.10;89.20
56426;DHT22;42330;43.620;3.856;2022-09-09T05:42:07;20.10;90.40
56426;DHT22;42330;43.620;3.856;2022-09-09T05:44:33;20.10;86.80
56426;DHT22;42330;43.620;3.856;2022-09-09T05:46:59;20.10;87.10
56426;DHT22;42330;43.620;3.856;2022-09-09T05:49:24;20.20;90.20
56426;DHT22;42330;43.620;3.856;2022-09-09T05:51:50;20.20;89.50
56426;DHT22;42330;43.620;3.856;2022-09-09T05:54:16;20.20;86.40
56426;DHT22;42330;43.620;3.856;2022-09-09T05:56:42;20.30;90.10
56426;DHT22;42330;43.620;3.856;2022-09-09T05:59:08;20.30;87.50
56426;DHT22;42330;43.620;3.856;2022-09-09T06:01:36;20.30;89.50
56426;DHT22;42330;43.620;3.856;2022-09-09T06:04:05;20.20;89.10
56426;DHT22;42330;43.620;3.856;2022-09-09T06:06:34;20.30;87.20
56426;DHT22;42330;43.620;3.856;2022-09-09T06:09:03;20.30;90.10
56426;DHT22;42330;43.620;3.856;2022-09-09T06:11:32;20.30;87.30
56426;DHT22;42330;43.620;3.856;2022-09-09T06:13:59;20.30;85.90
56426;DHT22;42330;43.620;3.856;2022-09-09T06:16:27;20.30;83.80
56426;DHT22;42330;43.620;3.856;2022-09-09T06:18:54;20.40;85.60
56426;DHT22;42330;43.620;3.856;2022-09-09T06:21:27;20.30;85.90
56426;DHT22;42330;43.620;3.856;2022-09-09T06:23:53;20.40;85.90
56426;DHT22;42330;43.620;3.856;2022-09-09T06:26:21;20.40;86.40
56426;DHT22;42330;43.620;3.856;2022-09-09T06:28:49;20.40;79.90
56426;DHT22;42330;43.620;3.856;2022-09-09T06:31:17;20.50;85.00
56426;DHT22;42330;43.620;3.856;2022-09-09T06:33:47;20.50;82.50
56426;DHT22;42330;43.620;3.856;2022-09-09T06:36:33;20.50;85.00
56426;DHT22;42330;43.620;3.856;2022-09-09T06:38:59;20.50;83.50
56426;DHT22;42330;43.620;3.856;2022-09-09T06:41:27;20.50;81.70
56426;DHT22;42330;43.620;3.856;2022-09-09T06:43:53;20.50;82.40
56426;DHT22;42330;43.620;3.856;2022-09-09T06:46:26;20.50;84.40
56426;DHT22;42330;43.620;3.856;2022-09-09T06:48:54;20.50;84.80
56426;DHT22;42330;43.620;3.856;2022-09-09T06:51:35;20.50;83.60
56426;DHT22;42330;43.620;3.856;2022-09-09T06:54:02;20.50;81.60
56426;DHT22;42330;43.620;3.856;2022-09-09T06:56:33;20.50;82.60
56426;DHT22;42330;43.620;3.856;2022-09-09T06:59:01;20.50;81.40
56426;DHT22;42330;43.620;3.856;2022-09-09T07:01:31;20.50;81.60
56426;DHT22;42330;43.620;3.856;2022-09-09T07:03:58;20.50;82.10
56426;DHT22;42330;43.620;3.856;2022-09-09T07:06:26;20.50;79.90
56426;DHT22;42330;43.620;3.856;2022-09-09T07:08:54;20.50;80.40
56426;DHT22;42330;43.620;3.856;2022-09-09T07:11:22;20.50;81.10
56426;DHT22;42330;43.620;3.856;2022-09-09T07:13:49;20.50;82.90
56426;DHT22;42330;43.620;3.856;2022-09-09T07:16:17;20.40;82.70
56426;DHT22;42330;43.620;3.856;2022-09-09T07:18:44;20.50;81.40
56426;DHT22;42330;43.620;3.856;2022-09-09T07:21:11;20.50;85.40
56426;DHT22;42330;43.620;3.856;2022-09-09T07:23:38;20.40;87.90
56426;DHT22;42330;43.620;3.856;2022-09-09T07:26:14;20.50;85.20
56426;DHT22;42330;43.620;3.856;2022-09-09T07:28:41;20.40;87.50
56426;DHT22;42330;43.620;3.856;2022-09-09T07:31:12;20.50;88.10
56426;DHT22;42330;43.620;3.856;2022-09-09T07:33:39;20.60;84.40
56426;DHT22;42330;43.620;3.856;2022-09-09T07:36:07;20.70;86.90
56426;DHT22;42330;43.620;3.856;2022-09-09T07:38:41;20.70;77.90
56426;DHT22;42330;43.620;3.856;2022-09-09T07:41:10;20.70;84.20
56426;DHT22;42330;43.620;3.856;2022-09-09T07:43:41;20.80;84.20
56426;DHT22;42330;43.620;3.856;2022-09-09T07:46:08;20.80;78.10
56426;DHT22;42330;43.620;3.856;2022-09-09T07:48:34;20.70;82.80
56426;DHT22;42330;43.620;3.856;2022-09-09T07:51:21;20.70;79.00
56426;DHT22;42330;43.620;3.856;2022-09-09T07:53:48;20.70;84.10
56426;DHT22;42330;43.620;3.856;2022-09-09T07:56:16;20.70;83.70
56426;DHT22;42330;43.620;3.856;2022-09-09T07:58:47;20.70;82.40
56426;DHT22;42330;43.620;3.856;2022-09-09T08:01:21;20.70;80.40
56426;DHT22;42330;43.620;3.856;2022-09-09T08:03:54;20.70;85.30
56426;DHT22;42330;43.620;3.856;2022-09-09T08:06:20;20.70;84.50
56426;DHT22;42330;43.620;3.856;2022-09-09T08:08:50;20.60;83.30
56426;DHT22;42330;43.620;3.856;2022-09-09T08:11:16;20.60;87.20
56426;DHT22;42330;43.620;3.856;2022-09-09T08:13:43;20.60;86.30
56426;DHT22;42330;43.620;3.856;2022-09-09T08:16:18;20.50;83.20
56426;DHT22;42330;43.620;3.856;2022-09-09T08:18:44;20.50;85.60
56426;DHT22;42330;43.620;3.856;2022-09-09T08:21:23;20.50;87.30
56426;DHT22;42330;43.620;3.856;2022-09-09T08:23:51;20.50;87.90
56426;DHT22;42330;43.620;3.856;2022-09-09T08:26:39;20.60;90.70
56426;DHT22;42330;43.620;3.856;2022-09-09T08:29:06;20.50;90.20
56426;DHT22;42330;43.620;3.856;2022-09-09T08:31:41;20.60;91.40
56426;DHT22;42330;43.620;3.856;2022-09-09T08:34:08;20.60;91.60
56426;DHT22;42330;43.620;3.856;2022-09-09T08:36:39;20.60;90.60
56426;DHT22;42330;43.620;3.856;2022-09-09T08:39:07;20.60;87.80
56426;DHT22;42330;43.620;3.856;2022-09-09T08:41:47;20.60;86.80
56426;DHT22;42330;43.620;3.856;2022-09-09T08:44:42;20.60;82.50
56426;DHT22;42330;43.620;3.856;2022-09-09T08:52:22;20.60;88.50
56426;DHT22;42330;43.620;3.856;2022-09-09T08:54:49;20.60;90.10
56426;DHT22;42330;43.620;3.856;2022-09-09T08:57:21;20.60;89.20
56426;DHT22;42330;43.620;3.856;2022-09-09T08:59:52;20.60;89.20
56426;DHT22;42330;43.620;3.856;2022-09-09T09:02:42;20.60;89.10
56426;DHT22;42330;43.620;3.856;2022-09-09T09:05:46;20.70;91.40
56426;DHT22;42330;43.620;3.856;2022-09-09T09:08:31;20.70;91.10
56426;DHT22;42330;43.620;3.856;2022-09-09T09:11:03;20.70;91.60
56426;DHT22;42330;43.620;3.856;2022-09-09T09:17:04;20.70;90.80
56426;DHT22;42330;43.620;3.856;2022-09-09T09:19:31;20.80;90.30
56426;DHT22;42330;43.620;3.856;2022-09-09T09:22:27;20.90;92.50
56426;DHT22;42330;43.620;3.856;2022-09-09T09:27:40;21.00;90.90
56426;DHT22;42330;43.620;3.856;2022-09-09T09:30:19;21.10;93.10
56426;DHT22;42330;43.620;3.856;2022-09-09T09:32:56;21.10;88.00
56426;DHT22;42330;43.620;3.856;2022-09-09T09:35:23;21.10;89.00
56426;DHT22;42330;43.620;3.856;2022-09-09T09:37:49;21.20;91.80
56426;DHT22;42330;43.620;3.856;2022-09-09T09:40:19;21.20;91.00
56426;DHT22;42330;43.620;3.856;2022-09-09T09:42:54;21.30;90.20
56426;DHT22;42330;43.620;3.856;2022-09-09T09:45:35;21.50;92.00
56426;DHT22;42330;43.620;3.856;2022-09-09T09:48:03;21.60;90.70
56426;DHT22;42330;43.620;3.856;2022-09-09T09:50:30;21.60;88.00
56426;DHT22;42330;43.620;3.856;2022-09-09T09:53:01;21.60;90.00
56426;DHT22;42330;43.620;3.856;2022-09-09T09:55:30;21.70;89.20
56426;DHT22;42330;43.620;3.856;2022-09-09T09:58:04;21.90;88.00
56426;DHT22;42330;43.620;3.856;2022-09-09T10:00:32;21.80;83.00
56426;DHT22;42330;43.620;3.856;2022-09-09T10:03:00;21.90;89.00
56426;DHT22;42330;43.620;3.856;2022-09-09T10:05:28;21.90;86.80
56426;DHT22;42330;43.620;3.856;2022-09-09T10:08:10;21.90;85.90
56426;DHT22;42330;43.620;3.856;2022-09-09T10:19:16;21.80;87.40
56426;DHT22;42330;43.620;3.856;2022-09-09T10:32:40;22.20;83.50
56426;DHT22;42330;43.620;3.856;2022-09-09T10:35:30;22.20;80.30
56426;DHT22;42330;43.620;3.856;2022-09-09T10:38:50;22.30;79.40
56426;DHT22;42330;43.620;3.856;2022-09-09T10:49:23;23.30;75.20
56426;DHT22;42330;43.620;3.856;2022-09-09T10:52:04;23.20;75.80
56426;DHT22;42330;43.620;3.856;2022-09-09T10:57:37;23.40;77.40
56426;DHT22;42330;43.620;3.856;2022-09-09T11:00:27;23.30;73.60
56426;DHT22;42330;43.620;3.856;2022-09-09T11:03:00;23.30;81.10
56426;DHT22;42330;43.620;3.856;2022-09-09T11:08:24;24.20;74.20
56426;DHT22;42330;43.620;3.856;2022-09-09T11:13:44;25.70;69.70
56426;DHT22;42330;43.620;3.856;2022-09-09T11:16:29;26.10;75.20
56426;DHT22;42330;43.620;3.856;2022-09-09T11:19:20;26.50;71.40
56426;DHT22;42330;43.620;3.856;2022-09-09T11:21:49;26.20;65.70
56426;DHT22;42330;43.620;3.856;2022-09-09T11:24:31;26.10;66.80
56426;DHT22;42330;43.620;3.856;2022-09-09T11:27:49;26.10;74.50
56426;DHT22;42330;43.620;3.856;2022-09-09T11:30:20;26.00;73.10
56426;DHT22;42330;43.620;3.856;2022-09-09T11:38:27;25.80;66.50
56426;DHT22;42330;43.620;3.856;2022-09-09T11:40:56;25.70;70.20
56426;DHT22;42330;43.620;3.856;2022-09-09T11:43:28;25.70;73.20
56426;DHT22;42330;43.620;3.856;2022-09-09T11:45:57;25.70;69.70
56426;DHT22;42330;43.620;3.856;2022-09-09T11:48:42;25.60;70.50
56426;DHT22;42330;43.620;3.856;2022-09-09T11:56:43;25.00;72.00
56426;DHT22;42330;43.620;3.856;2022-09-09T11:59:30;25.00;68.90
56426;DHT22;42330;43.620;3.856;2022-09-09T12:01:58;25.00;69.90
56426;DHT22;42330;43.620;3.856;2022-09-09T12:04:28;24.90;69.30
56426;DHT22;42330;43.620;3.856;2022-09-09T12:07:23;24.80;71.90
56426;DHT22;42330;43.620;3.856;2022-09-09T12:09:58;24.80;74.40
56426;DHT22;42330;43.620;3.856;2022-09-09T12:12:31;24.70;70.00
56426;DHT22;42330;43.620;3.856;2022-09-09T12:17:43;25.10;71.40
56426;DHT22;42330;43.620;3.856;2022-09-09T12:20:35;25.10;71.10
56426;DHT22;42330;43.620;3.856;2022-09-09T12:23:26;25.10;70.20
56426;DHT22;42330;43.620;3.856;2022-09-09T12:29:02;25.20;71.00
56426;DHT22;42330;43.620;3.856;2022-09-09T12:31:39;25.30;71.80
56426;DHT22;42330;43.620;3.856;2022-09-09T12:37:11;25.20;72.80
56426;DHT22;42330;43.620;3.856;2022-09-09T12:40:03;25.10;70.90
56426;DHT22;42330;43.620;3.856;2022-09-09T12:42:30;25.10;66.20
56426;DHT22;42330;43.620;3.856;2022-09-09T12:45:14;25.00;66.10
56426;DHT22;42330;43.620;3.856;2022-09-09T12:47:46;25.00;64.10
56426;DHT22;42330;43.620;3.856;2022-09-09T12:50:20;25.00;67.70
56426;DHT22;42330;43.620;3.856;2022-09-09T12:52:47;24.90;65.90
56426;DHT22;42330;43.620;3.856;2022-09-09T12:55:23;24.90;70.40
56426;DHT22;42330;43.620;3.856;2022-09-09T12:57:51;24.90;67.90
56426;DHT22;42330;43.620;3.856;2022-09-09T13:00:23;24.80;67.50
56426;DHT22;42330;43.620;3.856;2022-09-09T13:02:54;24.70;68.80
56426;DHT22;42330;43.620;3.856;2022-09-09T13:05:35;24.70;69.10
56426;DHT22;42330;43.620;3.856;2022-09-09T13:08:08;24.70;64.40
56426;DHT22;42330;43.620;3.856;2022-09-09T13:13:19;24.80;68.40
56426;DHT22;42330;43.620;3.856;2022-09-09T13:15:54;24.70;68.50
56426;DHT22;42330;43.620;3.856;2022-09-09T13:18:29;24.70;71.10
56426;DHT22;42330;43.620;3.856;2022-09-09T13:20:56;24.70;66.60
56426;DHT22;42330;43.620;3.856;2022-09-09T13:23:26;24.70;70.60
56426;DHT22;42330;43.620;3.856;2022-09-09T13:25:58;24.80;68.70
56426;DHT22;42330;43.620;3.856;2022-09-09T13:28:29;24.90;68.80
56426;DHT22;42330;43.620;3.856;2022-09-09T13:31:05;24.90;69.10
56426;DHT22;42330;43.620;3.856;2022-09-09T13:33:44;24.90;67.60
56426;DHT22;42330;43.620;3.856;2022-09-09T13:36:11;24.90;68.40
56426;DHT22;42330;43.620;3.856;2022-09-09T13:44:01;25.00;68.30
56426;DHT22;42330;43.620;3.856;2022-09-09T13:51:47;25.00;68.30
56426;DHT22;42330;43.620;3.856;2022-09-09T13:54:17;25.20;68.50
56426;DHT22;42330;43.620;3.856;2022-09-09T13:56:44;25.30;67.40
56426;DHT22;42330;43.620;3.856;2022-09-09T13:59:12;25.20;66.10
56426;DHT22;42330;43.620;3.856;2022-09-09T14:01:39;25.10;65.80
56426;DHT22;42330;43.620;3.856;2022-09-09T14:04:05;25.10;66.70
56426;DHT22;42330;43.620;3.856;2022-09-09T14:06:35;25.50;63.60
56426;DHT22;42330;43.620;3.856;2022-09-09T14:09:07;25.40;64.50
56426;DHT22;42330;43.620;3.856;2022-09-09T14:11:33;25.50;65.60
56426;DHT22;42330;43.620;3.856;2022-09-09T14:13:59;25.40;66.10
56426;DHT22;42330;43.620;3.856;2022-09-09T14:16:26;25.40;64.60
56426;DHT22;42330;43.620;3.856;2022-09-09T14:18:53;25.40;66.80
56426;DHT22;42330;43.620;3.856;2022-09-09T14:21:21;25.50;66.00
56426;DHT22;42330;43.620;3.856;2022-09-09T14:23:47;25.40;65.20
56426;DHT22;42330;43.620;3.856;2022-09-09T14:26:14;25.30;65.00
56426;DHT22;42330;43.620;3.856;2022-09-09T14:28:40;25.30;66.00
56426;DHT22;42330;43.620;3.856;2022-09-09T14:31:06;25.40;65.60
56426;DHT22;42330;43.620;3.856;2022-09-09T14:33:32;25.50;66.20
56426;DHT22;42330;43.620;3.856;2022-09-09T14:36:03;25.50;66.30
56426;DHT22;42330;43.620;3.856;2022-09-09T14:38:31;25.40;65.00
56426;DHT22;42330;43.620;3.856;2022-09-09T14:40:57;25.40;63.40
56426;DHT22;42330;43.620;3.856;2022-09-09T14:43:24;25.50;63.60
56426;DHT22;42330;43.620;3.856;2022-09-09T14:45:50;25.50;64.60
56426;DHT22;42330;43.620;3.856;2022-09-09T14:48:17;25.50;64.00
56426;DHT22;42330;43.620;3.856;2022-09-09T14:50:42;25.50;63.30
56426;DHT22;42330;43.620;3.856;2022-09-09T14:53:08;25.40;64.80
56426;DHT22;42330;43.620;3.856;2022-09-09T14:55:35;25.40;64.40
56426;DHT22;42330;43.620;3.856;2022-09-09T14:58:01;25.40;62.30
56426;DHT22;42330;43.620;3.856;2022-09-09T15:00:27;25.40;64.10
56426;DHT22;42330;43.620;3.856;2022-09-09T15:02:53;25.40;63.00
56426;DHT22;42330;43.620;3.856;2022-09-09T15:05:20;25.40;63.70
56426;DHT22;42330;43.620;3.856;2022-09-09T15:07:46;25.30;62.60
56426;DHT22;42330;43.620;3.856;2022-09-09T15:10:12;25.30;64.50
56426;DHT22;42330;43.620;3.856;2022-09-09T15:12:38;25.40;65.00
56426;DHT22;42330;43.620;3.856;2022-09-09T15:15:04;25.30;65.00
56426;DHT22;42330;43.620;3.856;2022-09-09T15:17:30;25.30;64.50
56426;DHT22;42330;43.620;3.856;2022-09-09T15:19:56;25.20;64.80
56426;DHT22;42330;43.620;3.856;2022-09-09T15:22:22;25.20;63.60
56426;DHT22;42330;43.620;3.856;2022-09-09T15:24:47;25.10;63.90
56426;DHT22;42330;43.620;3.856;2022-09-09T15:27:13;25.10;63.80
56426;DHT22;42330;43.620;3.856;2022-09-09T15:29:40;25.10;64.40
56426;DHT22;42330;43.620;3.856;2022-09-09T15:32:07;25.10;63.80
56426;DHT22;42330;43.620;3.856;2022-09-09T15:34:32;25.10;64.50
56426;DHT22;42330;43.620;3.856;2022-09-09T15:36:58;25.10;64.20
56426;DHT22;42330;43.620;3.856;2022-09-09T15:39:25;25.20;63.70
56426;DHT22;42330;43.620;3.856;2022-09-09T15:41:51;25.30;61.20
56426;DHT22;42330;43.620;3.856;2022-09-09T15:44:17;25.20;62.70
56426;DHT22;42330;43.620;3.856;2022-09-09T15:46:45;25.20;63.30
56426;DHT22;42330;43.620;3.856;2022-09-09T15:49:16;25.10;63.20
56426;DHT22;42330;43.620;3.856;2022-09-09T15:51:47;25.00;63.20
56426;DHT22;42330;43.620;3.856;2022-09-09T15:54:23;24.90;64.60
56426;DHT22;42330;43.620;3.856;2022-09-09T15:56:57;24.80;64.90
56426;DHT22;42330;43.620;3.856;2022-09-09T15:59:24;24.90;64.40
56426;DHT22;42330;43.620;3.856;2022-09-09T16:01:50;24.90;60.70
56426;DHT22;42330;43.620;3.856;2022-09-09T16:04:19;24.90;60.50
56426;DHT22;42330;43.620;3.856;2022-09-09T16:06:52;24.80;62.60
56426;DHT22;42330;43.620;3.856;2022-09-09T16:09:17;24.80;62.60
56426;DHT22;42330;43.620;3.856;2022-09-09T16:11:43;24.70;64.60
56426;DHT22;42330;43.620;3.856;2022-09-09T16:14:09;24.70;63.00
56426;DHT22;42330;43.620;3.856;2022-09-09T16:16:36;24.60;64.30
56426;DHT22;42330;43.620;3.856;2022-09-09T16:19:07;24.70;63.20
56426;DHT22;42330;43.620;3.856;2022-09-09T16:21:40;24.60;63.90
56426;DHT22;42330;43.620;3.856;2022-09-09T16:24:09;24.50;63.50
56426;DHT22;42330;43.620;3.856;2022-09-09T16:26:37;24.50;62.70
56426;DHT22;42330;43.620;3.856;2022-09-09T16:29:03;24.50;63.70
56426;DHT22;42330;43.620;3.856;2022-09-09T16:31:30;24.50;62.50
56426;DHT22;42330;43.620;3.856;2022-09-09T16:33:57;24.40;63.60
56426;DHT22;42330;43.620;3.856;2022-09-09T16:36:27;24.40;63.40
56426;DHT22;42330;43.620;3.856;2022-09-09T16:38:57;24.40;63.70
56426;DHT22;42330;43.620;3.856;2022-09-09T16:41:23;24.40;63.10
56426;DHT22;42330;43.620;3.856;2022-09-09T16:44:00;24.30;62.30
56426;DHT22;42330;43.620;3.856;2022-09-09T16:46:28;24.20;63.70
56426;DHT22;42330;43.620;3.856;2022-09-09T16:49:00;24.20;64.70
56426;DHT22;42330;43.620;3.856;2022-09-09T16:51:34;24.20;66.00
56426;DHT22;42330;43.620;3.856;2022-09-09T16:54:01;24.10;65.20
56426;DHT22;42330;43.620;3.856;2022-09-09T16:56:29;24.10;62.80
56426;DHT22;42330;43.620;3.856;2022-09-09T16:58:57;24.00;65.10
56426;DHT22;42330;43.620;3.856;2022-09-09T17:01:24;24.10;63.00
56426;DHT22;42330;43.620;3.856;2022-09-09T17:03:57;24.00;65.50
56426;DHT22;42330;43.620;3.856;2022-09-09T17:06:24;24.00;62.40
56426;DHT22;42330;43.620;3.856;2022-09-09T17:08:55;24.00;63.00
56426;DHT22;42330;43.620;3.856;2022-09-09T17:11:21;23.90;63.80
56426;DHT22;42330;43.620;3.856;2022-09-09T17:13:47;23.90;64.30
56426;DHT22;42330;43.620;3.856;2022-09-09T17:16:15;23.80;66.70
56426;DHT22;42330;43.620;3.856;2022-09-09T17:18:41;23.70;67.30
56426;DHT22;42330;43.620;3.856;2022-09-09T17:21:13;23.60;65.60
56426;DHT22;42330;43.620;3.856;2022-09-09T17:23:40;23.60;62.70
56426;DHT22;42330;43.620;3.856;2022-09-09T17:26:09;23.50;65.70
56426;DHT22;42330;43.620;3.856;2022-09-09T17:28:36;23.40;65.90
56426;DHT22;42330;43.620;3.856;2022-09-09T17:31:04;23.40;66.30
56426;DHT22;42330;43.620;3.856;2022-09-09T17:33:33;23.40;62.20
56426;DHT22;42330;43.620;3.856;2022-09-09T17:36:01;23.30;62.30
56426;DHT22;42330;43.620;3.856;2022-09-09T17:38:28;23.30;65.30
56426;DHT22;42330;43.620;3.856;2022-09-09T17:41:16;23.20;65.40
56426;DHT22;42330;43.620;3.856;2022-09-09T17:43:42;23.20;65.60
56426;DHT22;42330;43.620;3.856;2022-09-09T17:46:17;23.10;64.80
56426;DHT22;42330;43.620;3.856;2022-09-09T17:48:45;23.00;65.10
56426;DHT22;42330;43.620;3.856;2022-09-09T17:51:13;22.90;67.10